Time;durP1;ratioP1;P1;durP2;ratioP2;P2;SDS_P1;SDS_P2;PMS_P1;PMS_P2;Temp;Humidity;BMP_temperature;BMP_pressure;BME280_temperature;BME280_humidity;BME280_pressure;Samples;Min_cycle;Max_cycle;Signal;HPM_P1;HPM_P2
2023/10/16 00:02:59;;;;;;;3.00;0.90;;;8.70;96.30;;;7.10;80.54;100424.19;10156933;28;96878;-84
2023/10/16 00:08:06;;;;;;;1.73;0.70;;;8.60;96.10;;;7.11;80.38;100440.88;10186376;28;96639;-84
2023/10/16 00:13:11;;;;;;;1.23;0.83;;;8.60;96.10;;;7.13;80.11;100445.03;10179867;28;96474;-84
2023/10/16 00:18:22;;;;;;;1.87;0.77;;;8.70;96.00;;;7.09;79.73;100450.78;10194378;28;96791;-84
2023/10/16 00:23:25;;;;;;;2.20;0.77;;;8.60;95.80;;;7.04;80.14;100448.53;10197772;28;97658;-83
2023/10/16 00:28:30;;;;;;;1.77;0.60;;;8.60;95.80;;;6.96;80.09;100473.00;10189048;28;96567;-83
2023/10/16 00:33:33;;;;;;;1.30;0.70;;;8.60;95.80;;;6.93;80.29;100459.22;10205900;28;97918;-84
2023/10/16 00:38:38;;;;;;;3.20;0.80;;;8.50;95.80;;;6.91;80.33;100455.91;10194730;28;96602;-84
2023/10/16 00:43:45;;;;;;;1.00;0.60;;;8.50;95.80;;;6.85;79.69;100456.47;10208904;28;97479;-83
2023/10/16 00:48:49;;;;;;;1.60;0.70;;;8.50;95.70;;;6.84;79.61;100458.25;10215320;28;96692;-83
2023/10/16 00:53:52;;;;;;;1.10;0.50;;;8.40;95.60;;;6.75;79.72;100456.44;10221042;28;98734;-84
2023/10/16 00:58:56;;;;;;;2.13;0.90;;;8.30;95.60;;;6.70;79.85;100462.13;10164352;28;96964;-83
2023/10/16 01:04:01;;;;;;;1.63;0.90;;;8.30;95.60;;;6.69;79.88;100478.94;10187426;28;97330;-84
2023/10/16 01:09:08;;;;;;;1.40;0.90;;;8.20;95.60;;;6.63;80.16;100468.91;10188444;28;97058;-84
2023/10/16 01:14:12;;;;;;;2.30;1.10;;;8.20;95.70;;;6.57;80.77;100477.38;10182249;28;96673;-84
2023/10/16 01:19:19;;;;;;;3.27;1.10;;;8.10;95.90;;;6.52;81.31;100484.03;10188431;28;97641;-84
2023/10/16 01:24:24;;;;;;;2.23;1.07;;;8.10;96.20;;;6.45;82.15;100475.81;10230051;28;96490;-84
2023/10/16 01:29:30;;;;;;;1.90;1.00;;;8.00;96.50;;;6.41;82.86;100477.06;10202876;28;97560;-84
2023/10/16 01:34:34;;;;;;;2.43;1.20;;;8.00;96.60;;;6.33;83.08;100487.44;10205058;28;96840;-83
2023/10/16 01:39:48;;;;;;;1.20;0.80;;;7.80;96.80;;;6.28;83.10;100503.69;10227000;28;96846;-84
2023/10/16 01:44:52;;;;;;;2.90;0.90;;;7.80;96.90;;;6.19;83.39;100503.66;10186285;28;96596;-84
2023/10/16 01:49:58;;;;;;;1.67;0.90;;;7.70;97.00;;;6.14;83.54;100518.06;10188774;28;96988;-84
2023/10/16 01:55:03;;;;;;;1.53;1.07;;;7.70;97.00;;;6.13;83.48;100524.31;10203852;28;96593;-84
2023/10/16 02:00:16;;;;;;;2.13;0.90;;;7.60;97.00;;;6.14;83.35;100528.63;10153936;28;97082;-84
2023/10/16 02:05:20;;;;;;;2.60;1.20;;;7.60;96.90;;;6.08;83.27;100538.88;10201654;28;97646;-85
2023/10/16 02:10:24;;;;;;;3.07;0.87;;;7.60;97.00;;;6.05;83.49;100537.31;10212596;28;96453;-84
2023/10/16 02:15:28;;;;;;;1.90;0.90;;;7.50;97.00;;;6.00;83.66;100534.25;10146115;28;96762;-84
2023/10/16 02:20:38;;;;;;;1.53;0.90;;;7.50;97.10;;;5.95;83.71;100531.16;10141621;28;96904;-84
2023/10/16 02:25:43;;;;;;;1.80;0.97;;;7.50;97.20;;;5.89;84.13;100524.56;10159195;28;96553;-84
2023/10/16 02:30:49;;;;;;;2.30;0.87;;;7.40;97.20;;;5.82;84.27;100528.69;10114958;28;96742;-84
2023/10/16 02:35:54;;;;;;;1.63;0.90;;;7.30;97.30;;;5.74;84.25;100511.84;10166347;28;97246;-84
2023/10/16 02:41:04;;;;;;;1.20;0.60;;;7.30;97.30;;;5.68;84.26;100542.19;10155061;28;96591;-83
2023/10/16 02:46:11;;;;;;;2.03;1.08;;;7.20;97.30;;;5.61;84.79;100541.03;10155242;28;97486;-84
2023/10/16 02:51:16;;;;;;;1.20;0.70;;;7.20;97.40;;;5.59;84.72;100546.44;10142797;28;97141;-84
2023/10/16 02:56:22;;;;;;;2.50;1.00;;;7.10;97.50;;;5.59;84.78;100540.34;10154040;28;96583;-84
2023/10/16 03:01:25;;;;;;;2.20;1.00;;;7.10;97.50;;;5.56;84.74;100549.31;10159796;28;97862;-85
2023/10/16 03:06:31;;;;;;;1.90;0.90;;;7.10;97.50;;;5.60;84.53;100555.19;10132761;28;96709;-83
2023/10/16 03:11:34;;;;;;;1.60;1.00;;;7.10;97.40;;;5.61;84.31;100547.13;10178598;28;98556;-84
2023/10/16 03:16:38;;;;;;;2.37;1.10;;;7.10;97.40;;;5.58;84.43;100534.22;10156709;28;97745;-84
2023/10/16 03:21:45;;;;;;;1.07;0.83;;;7.10;97.40;;;5.54;84.34;100542.50;10169485;28;96740;-84
2023/10/16 03:26:50;;;;;;;1.70;0.97;;;7.00;97.50;;;5.51;84.30;100561.19;10189132;28;97480;-84
2023/10/16 03:31:54;;;;;;;2.47;1.07;;;7.00;97.40;;;5.51;84.11;100559.41;10153012;28;97247;-84
2023/10/16 03:37:03;;;;;;;3.47;1.10;;;7.00;97.40;;;5.51;84.13;100569.94;10187276;28;96926;-84
2023/10/16 03:42:09;;;;;;;2.43;0.97;;;7.00;97.30;;;5.54;83.93;100580.25;10188686;28;96835;-84
2023/10/16 03:47:14;;;;;;;4.23;1.20;;;7.10;97.30;;;5.54;83.84;100582.88;10203341;28;97115;-84
2023/10/16 03:52:18;;;;;;;2.13;1.07;;;7.00;97.30;;;5.53;84.00;100578.59;10203983;28;96603;-83
2023/10/16 03:57:23;;;;;;;2.37;1.30;;;7.00;97.40;;;5.53;84.30;100581.22;10203889;28;96436;-84
2023/10/16 04:02:31;;;;;;;2.80;1.57;;;7.00;97.50;;;5.55;84.48;100581.09;10171949;28;96716;-84
2023/10/16 04:07:37;;;;;;;1.97;1.40;;;7.00;97.60;;;5.52;84.89;100595.38;10195602;28;96916;-84
2023/10/16 04:12:51;;;;;;;4.17;1.50;;;7.00;97.80;;;5.48;85.42;100588.66;10195231;28;98642;-83
2023/10/16 04:18:04;;;;;;;2.43;1.30;;;7.00;98.00;;;5.41;85.59;100595.41;10187281;28;96636;-83
2023/10/16 04:23:21;;;;;;;3.90;1.70;;;6.90;98.10;;;5.34;86.22;100594.25;10212961;28;96583;-84
2023/10/16 04:28:29;;;;;;;4.33;1.87;;;6.90;98.30;;;5.28;86.66;100603.47;10212400;28;98427;-83
2023/10/16 04:33:48;;;;;;;2.40;1.40;;;6.80;98.50;;;5.24;87.15;100606.47;10172545;28;96951;-83
2023/10/16 04:38:55;;;;;;;2.53;1.70;;;6.80;98.70;;;5.20;87.33;100610.31;10180244;28;98306;-84
2023/10/16 04:49:14;;;;;;;2.50;1.70;;;6.70;99.20;;;5.13;88.47;100601.22;10177566;28;97350;-84
2023/10/16 04:54:27;;;;;;;2.90;1.77;;;6.70;99.30;;;5.08;88.60;100602.41;10216262;28;98184;-83
2023/10/16 04:59:37;;;;;;;2.43;1.30;;;6.60;99.40;;;5.07;88.65;100607.81;10218351;28;96681;-82
2023/10/16 05:05:10;;;;;;;2.27;1.40;;;6.60;99.40;;;5.02;88.66;100602.91;10162564;28;98074;-82
2023/10/16 05:10:51;;;;;;;4.93;1.30;;;6.60;99.50;;;5.00;88.53;100596.09;10183724;28;96688;-82
2023/10/16 05:16:30;;;;;;;2.63;1.50;;;6.50;99.40;;;4.98;88.41;100601.50;10215135;28;97416;-83
2023/10/16 05:21:51;;;;;;;3.63;1.10;;;6.50;99.30;;;5.01;88.08;100613.56;10217115;28;98859;-83
2023/10/16 06:15:20;;;;;;;1.20;0.80;;;7.50;96.90;;;6.02;82.13;100664.22;10174082;28;98397;-83
2023/10/16 06:20:25;;;;;;;1.53;0.83;;;7.60;96.90;;;6.04;82.68;100658.81;10181743;28;96553;-83
2023/10/16 06:25:35;;;;;;;3.37;1.50;;;7.60;97.20;;;6.09;81.81;100654.00;10210703;28;96723;-84
2023/10/16 06:30:39;;;;;;;1.77;1.00;;;7.60;97.00;;;6.17;81.75;100659.47;10184380;28;96933;-83
2023/10/16 06:35:43;;;;;;;1.47;1.00;;;7.70;97.10;;;6.31;81.52;100655.69;10190112;28;96684;-83
2023/10/16 06:40:47;;;;;;;3.03;1.23;;;7.80;97.00;;;6.45;81.04;100665.91;10219801;28;96525;-83
2023/10/16 06:45:58;;;;;;;1.87;1.00;;;7.90;96.80;;;6.56;80.58;100667.63;10207376;28;96658;-83
2023/10/16 06:51:05;;;;;;;1.17;0.70;;;8.10;96.70;;;6.75;80.50;100674.81;10193934;28;98855;-83
2023/10/16 06:56:08;;;;;;;1.43;1.00;;;8.20;96.80;;;7.03;80.88;100686.50;10207969;28;97654;-84
2023/10/16 07:01:19;;;;;;;3.73;1.00;;;8.50;96.90;;;7.24;79.31;100688.09;10221711;28;96538;-83
2023/10/16 07:06:29;;;;;;;1.47;0.67;;;8.80;96.40;;;7.37;77.05;100698.41;10195634;28;96564;-83
2023/10/16 07:11:33;;;;;;;2.07;0.93;;;9.00;96.20;;;7.58;75.77;100693.06;10198168;28;96620;-83
2023/10/16 07:16:38;;;;;;;1.97;0.80;;;9.20;95.50;;;7.82;75.54;100691.84;10167916;28;96990;-83
2023/10/16 07:21:48;;;;;;;3.53;0.73;;;9.40;95.50;;;8.09;74.85;100693.78;10163914;28;98547;-83
2023/10/16 07:26:52;;;;;;;1.90;0.60;;;9.70;95.40;;;8.55;68.02;100683.31;10145035;28;96785;-84
2023/10/16 07:31:55;;;;;;;1.80;0.60;;;10.00;92.70;;;9.11;67.09;100695.66;10184182;28;97836;-83
2023/10/16 07:37:00;;;;;;;1.87;0.80;;;10.20;93.00;;;9.62;64.23;100696.13;10160551;28;96598;-83
2023/10/16 07:42:04;;;;;;;0.93;0.50;;;10.60;90.70;;;9.87;61.68;100698.03;10142204;28;96726;-83
2023/10/16 07:47:08;;;;;;;1.33;0.77;;;10.70;90.80;;;10.04;60.22;100700.84;10168051;28;96551;-83
2023/10/16 07:52:12;;;;;;;3.17;0.50;;;10.90;89.90;;;10.10;59.41;100689.63;10170995;28;96692;-83
2023/10/16 07:57:17;;;;;;;1.33;0.70;;;11.00;89.00;;;10.09;59.63;100709.19;10181534;28;96778;-83
2023/10/16 08:02:21;;;;;;;1.97;0.90;;;11.20;89.80;;;10.23;60.60;100715.78;10154609;28;97361;-83
2023/10/16 08:07:46;;;;;;;3.00;0.80;;;11.30;90.40;;;10.28;60.18;100718.84;10166944;28;96577;-83
2023/10/16 08:12:48;;;;;;;1.53;0.53;;;11.50;90.00;;;10.37;59.38;100720.56;10177905;28;96677;-83
2023/10/16 08:17:52;;;;;;;1.40;0.60;;;11.60;89.60;;;10.35;58.30;100725.22;10174844;28;96791;-83
2023/10/16 08:23:02;;;;;;;1.83;0.57;;;11.80;85.50;;;10.23;59.06;100716.66;10190940;28;98610;-83
2023/10/16 08:33:39;;;;;;;1.53;0.80;;;11.70;86.50;;;10.21;58.88;100718.59;10173958;28;97563;-83
2023/10/16 08:38:51;;;;;;;2.50;1.40;;;11.70;85.70;;;10.11;58.41;100728.44;10168666;28;96574;-83
2023/10/16 08:44:03;;;;;;;2.00;0.80;;;11.50;84.50;;;10.05;59.47;100729.06;10216717;28;97470;-82
2023/10/16 08:49:09;;;;;;;2.93;0.83;;;11.40;85.90;;;10.14;59.51;100725.50;10159607;28;96664;-82
2023/10/16 08:59:37;;;;;;;2.83;0.77;;;11.50;85.50;;;10.19;57.91;100721.41;10193830;28;96495;-84
2023/10/16 09:04:43;;;;;;;1.37;0.67;;;11.50;83.80;;;10.30;58.12;100723.00;10196093;28;96739;-83
2023/10/16 09:09:48;;;;;;;2.57;0.80;;;11.60;85.00;;;10.45;58.00;100728.63;10226709;28;97528;-83
2023/10/16 09:14:54;;;;;;;2.23;0.63;;;11.80;84.10;;;10.54;56.61;100722.38;10168582;28;98462;-83
2023/10/16 09:19:58;;;;;;;1.30;0.80;;;11.90;83.40;;;10.53;56.28;100717.22;10185217;28;96920;-87
2023/10/16 09:25:13;;;;;;;1.27;0.57;;;11.90;82.00;;;10.56;54.97;100719.56;10149201;28;98691;-84
2023/10/16 09:30:33;;;;;;;1.50;0.47;;;11.90;81.20;;;10.60;54.34;100723.56;10157998;28;96843;-84
2023/10/16 09:35:43;;;;;;;3.43;0.90;;;12.00;80.20;;;10.68;55.45;100721.81;10157423;28;96848;-84
2023/10/16 09:51:59;;;;;;;4.27;0.67;;;12.20;79.60;;;10.97;53.95;100708.22;10163991;28;98024;-84
2023/10/16 09:57:16;;;;;;;2.27;0.70;;;12.30;79.60;;;11.20;53.26;100708.47;10149316;28;96720;-84
2023/10/16 10:02:26;;;;;;;1.63;0.87;;;12.60;80.10;;;11.38;52.52;100700.41;10163289;28;97164;-84
2023/10/16 10:07:36;;;;;;;3.20;0.73;;;12.80;78.40;;;11.43;52.26;100700.75;10164993;28;97634;-85
2023/10/16 10:12:47;;;;;;;2.67;0.60;;;12.80;77.20;;;11.59;51.42;100689.34;10157999;28;96583;-85
2023/10/16 10:17:55;;;;;;;;;;;13.00;76.30;;;11.73;50.72;100679.88;10150062;28;96569;-84
2023/10/16 10:23:04;;;;;;;3.40;1.10;;;13.10;75.00;;;11.79;49.58;100679.22;10143952;28;96713;-84
2023/10/16 10:28:28;;;;;;;1.43;0.70;;;13.30;73.80;;;11.98;49.61;100668.28;10167406;28;97731;-85
2023/10/16 10:33:36;;;;;;;2.00;0.50;;;13.50;74.00;;;12.15;48.54;100670.97;10154457;28;98320;-85
2023/10/16 10:38:41;;;;;;;0.38;0.30;;;13.70;72.30;;;12.37;47.93;100662.28;10158231;28;97302;-84
2023/10/16 10:44:03;;;;;;;0.93;0.52;;;13.90;72.80;;;12.69;48.14;100665.91;10202161;28;96527;-85
2023/10/16 10:49:12;;;;;;;2.28;0.60;;;14.20;72.20;;;12.94;46.64;100659.50;10191425;28;97023;-86
2023/10/16 10:54:23;;;;;;;1.50;0.80;;;14.30;70.30;;;13.00;46.13;100637.47;10194297;28;97909;-84
2023/10/16 10:59:41;;;;;;;1.60;0.60;;;14.40;69.60;;;13.06;46.06;100628.75;10187584;28;97120;-84
2023/10/16 11:04:53;;;;;;;2.03;0.98;;;14.60;69.20;;;13.27;45.08;100628.22;10151552;28;96621;-84
2023/10/16 11:09:57;;;;;;;2.75;0.80;;;14.90;67.60;;;13.52;45.02;100620.06;10179369;28;96567;-85
2023/10/16 11:15:05;;;;;;;1.58;0.80;;;15.30;68.30;;;14.04;44.03;100617.50;10185971;28;96965;-85
2023/10/16 11:25:20;;;;;;;2.28;0.73;;;17.00;65.20;;;15.83;39.84;100594.94;10201584;28;96922;-86
2023/10/16 11:30:27;;;;;;;1.42;0.70;;;17.80;61.30;;;16.28;38.40;100591.81;10182550;28;98350;-86
2023/10/16 11:35:34;;;;;;;0.70;0.35;;;18.20;62.10;;;16.71;38.22;100583.63;10204312;28;97310;-86
2023/10/16 11:40:45;;;;;;;1.90;0.80;;;18.30;62.10;;;17.16;36.36;100578.69;10196909;28;96996;-87
2023/10/16 11:46:05;;;;;;;1.10;0.50;;;18.60;58.20;;;17.43;36.40;100571.50;10163286;28;97095;-85
2023/10/16 11:51:15;;;;;;;2.17;0.50;;;18.80;60.00;;;16.87;35.67;100571.75;10219113;28;97091;-84
2023/10/16 11:56:18;;;;;;;1.73;0.70;;;18.10;57.80;;;15.95;36.56;100571.94;10216603;28;97040;-85
2023/10/16 12:01:24;;;;;;;0.93;0.38;;;16.90;58.40;;;15.08;38.72;100574.78;10212524;28;96637;-85
2023/10/16 12:06:49;;;;;;;0.63;0.30;;;16.10;59.80;;;14.28;39.87;100580.88;10195682;28;96609;-84
2023/10/16 12:11:54;;;;;;;0.85;0.38;;;15.40;60.40;;;13.69;39.85;100572.72;10185429;28;96713;-84
2023/10/16 12:17:00;;;;;;;1.85;0.38;;;14.90;60.20;;;13.23;41.20;100572.69;10183181;28;96527;-84
2023/10/16 12:22:04;;;;;;;1.45;0.70;;;14.50;61.40;;;12.89;41.82;100573.81;10208349;28;96512;-84
2023/10/16 12:27:08;;;;;;;1.60;0.40;;;14.20;61.80;;;12.69;43.17;100572.56;10225160;28;96601;-84
2023/10/16 12:32:12;;;;;;;1.90;0.60;;;13.90;62.90;;;12.54;43.80;100585.81;10215192;28;96712;-84
2023/10/16 12:37:22;;;;;;;3.07;0.80;;;13.80;63.80;;;12.37;43.15;100577.00;10197665;28;96777;-83
2023/10/16 12:42:27;;;;;;;5.37;0.93;;;13.70;63.00;;;12.32;43.83;100574.03;10177241;28;96618;-83
2023/10/16 12:47:31;;;;;;;0.90;0.40;;;13.60;63.60;;;12.33;44.43;100567.69;10175231;28;96602;-83
2023/10/16 12:52:46;;;;;;;1.30;0.60;;;13.60;64.30;;;12.27;44.04;100569.19;10215166;28;96442;-84
2023/10/16 12:57:52;;;;;;;1.13;0.60;;;13.60;64.00;;;12.27;44.80;100565.69;10228669;28;96800;-84
2023/10/16 13:02:58;;;;;;;3.23;1.20;;;13.60;64.70;;;12.31;44.92;100565.19;10200591;28;98589;-83
2023/10/16 13:08:03;;;;;;;2.03;0.70;;;13.60;65.20;;;12.33;45.54;100567.69;10220057;28;96594;-84
2023/10/16 13:13:06;;;;;;;1.13;0.50;;;13.70;65.30;;;12.33;45.44;100570.34;10227212;28;97054;-84
2023/10/16 13:18:11;;;;;;;3.10;0.40;;;13.70;65.50;;;12.28;44.46;100568.19;10228086;28;96970;-83
2023/10/16 13:23:18;;;;;;;3.40;0.57;;;13.60;64.30;;;12.25;43.07;100560.56;10215341;28;96581;-83
2023/10/16 13:28:41;;;;;;;;;;;13.60;63.10;;;12.23;44.40;100565.19;10224973;28;97933;-83
2023/10/16 13:33:50;;;;;;;1.40;0.57;;;13.60;64.10;;;12.18;44.19;100566.72;10224967;28;96635;-83
2023/10/16 13:38:55;;;;;;;2.10;0.53;;;13.60;64.10;;;12.12;44.57;100562.91;10211756;28;96843;-83
2023/10/16 13:43:59;;;;;;;4.07;1.53;;;13.50;64.50;;;12.09;44.54;100563.22;10210208;28;96539;-83
2023/10/16 13:49:04;;;;;;;1.53;0.67;;;13.50;64.50;;;12.12;45.06;100560.25;10220192;28;96641;-83
2023/10/16 13:54:12;;;;;;;1.83;0.50;;;13.50;65.10;;;12.10;43.87;100564.06;10204569;28;97451;-83
2023/10/16 13:59:18;;;;;;;0.90;0.50;;;13.50;63.40;;;12.08;44.42;100566.91;10182681;28;96853;-83
2023/10/16 14:04:25;;;;;;;3.17;0.50;;;13.40;64.30;;;12.03;44.05;100558.59;10224725;28;96597;-83
2023/10/16 14:09:32;;;;;;;2.43;0.60;;;13.40;64.30;;;12.00;44.45;100550.94;10206105;28;98422;-83
2023/10/16 14:14:36;;;;;;;5.50;0.90;;;13.40;64.50;;;12.01;45.44;100556.09;10226748;28;96662;-83
2023/10/16 14:19:39;;;;;;;2.53;0.80;;;13.40;65.30;;;12.02;45.68;100547.09;10209723;28;96690;-83
2023/10/16 14:24:43;;;;;;;3.17;1.00;;;13.40;65.80;;;12.02;45.59;100549.75;10226909;28;97441;-83
2023/10/16 14:29:48;;;;;;;0.83;0.47;;;13.40;65.60;;;11.90;45.25;100551.09;10212138;28;96522;-83
2023/10/16 14:34:52;;;;;;;1.10;0.60;;;13.30;65.00;;;11.80;45.99;100548.56;10212943;28;96676;-83
2023/10/16 14:39:56;;;;;;;2.50;0.60;;;13.20;65.80;;;11.72;46.00;100539.78;10227319;28;97539;-82
2023/10/16 14:45:06;;;;;;;2.47;0.73;;;13.10;66.00;;;11.66;46.39;100545.75;10215259;28;96570;-83
2023/10/16 14:50:14;;;;;;;1.20;0.70;;;13.10;66.40;;;11.61;46.35;100543.59;10170272;28;97420;-82
2023/10/16 14:55:18;;;;;;;3.17;0.70;;;13.00;66.40;;;11.52;46.41;100536.63;10208778;28;96473;-81
2023/10/16 15:00:28;;;;;;;1.17;0.40;;;12.90;66.40;;;11.50;46.38;100538.59;10212765;28;96572;-82
2023/10/16 15:05:31;;;;;;;1.07;0.40;;;12.90;66.60;;;11.40;46.87;100544.09;10207097;28;96718;-82
2023/10/16 15:10:36;;;;;;;1.50;0.40;;;12.80;67.00;;;11.30;46.97;100542.56;10206781;28;96710;-83
2023/10/16 15:15:52;;;;;;;0.60;0.30;;;12.70;67.10;;;11.21;47.67;100536.38;10205647;28;97068;-83
2023/10/16 15:20:56;;;;;;;7.47;3.10;;;12.60;67.50;;;11.08;47.95;100530.72;10224131;28;96624;-82
2023/10/16 15:26:01;;;;;;;1.97;0.67;;;12.50;67.90;;;10.90;48.39;100533.50;10165238;28;96740;-83
2023/10/16 15:31:05;;;;;;;2.50;0.80;;;12.30;68.30;;;10.76;49.23;100542.94;10192521;28;97430;-82
2023/10/16 15:36:09;;;;;;;1.53;0.70;;;12.20;68.90;;;10.54;51.18;100543.50;10185449;28;96556;-82
2023/10/16 15:41:13;;;;;;;1.53;0.67;;;11.90;70.00;;;10.32;51.69;100556.34;10155563;28;98003;-83
2023/10/16 15:46:30;;;;;;;1.53;0.70;;;11.70;70.50;;;10.10;52.63;100559.50;10169231;28;97633;-82
2023/10/16 15:51:36;;;;;;;1.70;0.60;;;11.50;71.10;;;9.87;53.14;100562.66;10152779;28;96687;-83
2023/10/16 15:56:41;;;;;;;1.97;0.80;;;11.30;71.70;;;9.66;53.82;100567.47;10214987;28;97380;-83
2023/10/16 16:01:48;;;;;;;4.87;2.10;;;11.10;72.30;;;9.43;54.30;100567.09;10196345;28;96559;-83
2023/10/16 16:06:53;;;;;;;11.53;5.47;;;10.80;72.70;;;9.17;55.90;100563.50;10206112;28;96832;-83
2023/10/16 16:11:57;;;;;;;11.03;4.70;;;10.60;73.60;;;8.92;56.69;100565.88;10225869;28;97339;-83
2023/10/16 16:17:01;;;;;;;10.80;4.27;;;10.40;74.60;;;8.73;56.63;100569.47;10198885;28;97730;-83
2023/10/16 16:22:10;;;;;;;12.90;5.47;;;10.20;74.70;;;8.59;56.94;100572.63;10187315;28;96700;-83
2023/10/16 16:27:14;;;;;;;11.20;5.10;;;10.10;75.00;;;8.44;57.52;100577.53;10194960;28;98431;-83
2023/10/16 16:32:18;;;;;;;8.80;3.70;;;10.00;75.60;;;8.26;58.10;100580.06;10215501;28;98227;-83
2023/10/16 16:37:22;;;;;;;4.17;2.00;;;9.80;76.10;;;8.17;59.26;100588.03;10209337;28;96826;-83
2023/10/16 16:42:26;;;;;;;2.17;1.30;;;9.70;76.70;;;8.03;59.49;100589.31;10213128;28;96520;-83
2023/10/16 16:47:30;;;;;;;1.70;0.93;;;9.60;77.10;;;7.92;59.41;100586.84;10222130;28;96506;-83
2023/10/16 16:52:35;;;;;;;3.30;1.53;;;9.50;77.30;;;7.84;59.80;100599.91;10213609;28;96692;-82
2023/10/16 16:57:39;;;;;;;3.00;1.40;;;9.40;77.30;;;7.73;59.96;100604.38;10227236;28;96620;-82
2023/10/16 17:02:43;;;;;;;2.50;1.00;;;9.30;77.10;;;7.65;60.16;100606.06;10214514;28;96518;-83
2023/10/16 17:07:51;;;;;;;5.30;1.00;;;9.20;77.30;;;7.55;60.32;100603.38;10200979;28;96612;-82
2023/10/16 17:12:54;;;;;;;2.03;0.83;;;9.20;77.50;;;7.48;60.89;100604.94;10208857;28;98456;-82
2023/10/16 17:18:02;;;;;;;2.70;1.10;;;9.10;77.80;;;7.37;61.67;100607.69;10190658;28;97463;-83
2023/10/16 17:23:06;;;;;;;2.00;0.70;;;9.00;79.00;;;7.32;61.88;100599.38;10196125;28;97533;-83
2023/10/16 17:28:16;;;;;;;6.07;2.50;;;8.80;79.10;;;7.24;62.90;100608.78;10176214;28;96957;-82
2023/10/16 17:33:20;;;;;;;9.80;3.07;;;8.80;79.40;;;7.13;62.97;100611.53;10183749;28;96543;-82
2023/10/16 17:38:29;;;;;;;5.43;2.93;;;8.70;79.70;;;6.95;63.74;100619.28;10195051;28;96574;-82
2023/10/16 17:43:32;;;;;;;7.33;2.77;;;8.50;80.00;;;6.80;63.69;100627.72;10188285;28;97290;-82
2023/10/16 17:48:43;;;;;;;20.20;8.83;;;8.30;80.30;;;6.59;64.65;100628.59;10164304;28;97067;-82
2023/10/16 17:53:47;;;;;;;7.03;3.17;;;8.10;80.80;;;6.43;66.50;100641.44;10193222;28;97434;-83
2023/10/16 17:58:55;;;;;;;5.37;2.33;;;8.00;83.00;;;6.30;66.83;100643.47;10215806;28;96501;-82
2023/10/16 18:03:59;;;;;;;9.07;3.97;;;7.80;82.50;;;6.19;67.96;100644.34;10212866;28;96509;-82
2023/10/16 18:09:07;;;;;;;7.47;2.73;;;7.70;83.20;;;6.07;67.90;100640.94;10223070;28;96756;-83
2023/10/16 18:14:13;;;;;;;4.30;1.75;;;7.60;83.70;;;6.04;67.54;100637.72;10199877;28;97005;-85
2023/10/16 18:19:17;;;;;;;6.97;2.03;;;7.60;84.30;;;6.08;66.88;100645.25;10204711;28;96807;-83
2023/10/16 18:24:22;;;;;;;5.93;2.07;;;7.60;84.00;;;6.11;66.94;100647.63;10192861;28;97675;-82
2023/10/16 18:29:29;;;;;;;3.43;1.70;;;7.70;83.80;;;6.09;66.74;100662.75;10222685;28;97483;-82
2023/10/16 18:34:35;;;;;;;7.57;3.40;;;7.60;83.40;;;6.04;67.21;100659.66;10211143;28;96539;-83
2023/10/16 18:39:40;;;;;;;8.10;4.10;;;7.60;83.30;;;5.99;67.05;100661.81;10208094;28;98651;-82
2023/10/16 18:44:43;;;;;;;6.30;3.60;;;7.60;83.50;;;5.89;67.82;100661.75;10187276;28;98167;-83
2023/10/16 18:49:49;;;;;;;8.43;4.30;;;7.50;83.50;;;5.84;68.15;100665.72;10194478;28;96519;-83
2023/10/16 18:54:53;;;;;;;7.10;3.43;;;7.50;83.80;;;5.71;68.59;100663.25;10224244;28;96599;-83
2023/10/16 18:59:59;;;;;;;27.60;8.83;;;7.40;84.20;;;5.59;69.41;100659.81;10218412;28;96614;-83
2023/10/16 19:05:06;;;;;;;14.87;5.67;;;7.30;84.30;;;5.50;70.07;100665.81;10200718;28;96634;-82
2023/10/16 19:10:10;;;;;;;10.40;4.80;;;7.20;84.80;;;5.40;70.38;100672.81;10208146;28;98038;-83
2023/10/16 19:15:15;;;;;;;15.60;6.17;;;7.10;85.00;;;5.21;70.64;100680.47;10202390;28;96776;-82
2023/10/16 19:20:19;;;;;;;18.07;6.37;;;7.00;85.60;;;5.16;71.53;100688.78;10214533;28;97383;-82
2023/10/16 19:25:25;;;;;;;16.60;5.53;;;6.90;85.70;;;5.03;72.13;100696.78;10196486;28;96637;-82
2023/10/16 19:30:29;;;;;;;14.80;5.47;;;6.70;86.10;;;4.88;73.16;100705.88;10188725;28;97403;-83
2023/10/16 19:35:35;;;;;;;9.83;4.03;;;6.60;87.20;;;4.67;74.49;100707.53;10196565;28;96651;-83
2023/10/16 19:40:39;;;;;;;12.50;4.83;;;6.30;89.40;;;4.59;74.70;100715.19;10197389;28;96706;-83
2023/10/16 19:45:43;;;;;;;16.67;6.60;;;6.10;88.70;;;4.57;74.15;100717.94;10182684;28;96863;-82
2023/10/16 19:50:47;;;;;;;8.10;3.43;;;6.20;88.70;;;4.50;74.27;100717.56;10173452;28;96785;-82
2023/10/16 19:55:52;;;;;;;10.03;3.87;;;6.20;88.80;;;4.44;74.74;100722.47;10185434;28;96760;-83
2023/10/16 20:00:55;;;;;;;33.77;11.47;;;6.10;89.80;;;4.37;75.46;100735.22;10185309;28;96943;-83
2023/10/16 20:05:59;;;;;;;46.80;12.83;;;6.00;89.90;;;4.35;75.45;100723.97;10213127;28;96680;-83
2023/10/16 20:11:03;;;;;;;18.13;7.30;;;6.00;89.60;;;4.36;76.00;100720.38;10193240;28;96646;-85
2023/10/16 20:16:07;;;;;;;13.17;4.60;;;6.00;90.00;;;4.40;76.01;100732.34;10203841;28;98780;-82
2023/10/16 20:21:21;;;;;;;7.93;2.80;;;6.00;89.60;;;4.43;76.46;100732.13;10183765;28;96485;-85
2023/10/16 20:26:27;;;;;;;5.87;2.83;;;6.00;90.10;;;4.43;76.62;100729.47;10191188;28;96894;-82
2023/10/16 20:31:31;;;;;;;7.30;2.93;;;6.00;90.30;;;4.46;76.81;100724.00;10179495;28;98304;-82
2023/10/16 20:36:41;;;;;;;6.30;3.00;;;6.10;90.00;;;4.45;76.72;100737.28;10181811;28;96689;-82
2023/10/16 20:41:47;;;;;;;10.67;3.93;;;6.10;90.30;;;4.41;76.93;100744.56;10189562;28;97322;-81
2023/10/16 20:46:51;;;;;;;12.40;3.63;;;6.10;90.30;;;4.37;77.10;100735.22;10180242;28;97704;-83
2023/10/16 20:51:55;;;;;;;7.23;3.20;;;6.10;90.30;;;4.29;77.43;100734.94;10175840;28;98145;-82
2023/10/16 20:56:59;;;;;;;5.80;2.97;;;6.00;90.40;;;4.15;77.36;100732.53;10209565;28;96679;-83
2023/10/16 21:02:05;;;;;;;4.93;2.13;;;5.80;90.50;;;4.02;78.25;100741.31;10184074;28;96751;-83
2023/10/16 21:07:10;;;;;;;3.03;1.50;;;5.60;91.20;;;3.87;78.70;100738.94;10193712;28;96607;-83
2023/10/16 21:12:13;;;;;;;3.93;1.50;;;5.50;91.40;;;3.79;79.41;100746.56;10210260;28;96654;-83
2023/10/16 21:17:17;;;;;;;3.17;1.47;;;5.40;91.40;;;3.75;80.21;100745.94;10195684;28;97928;-82
2023/10/16 21:22:26;;;;;;;4.03;1.60;;;5.30;91.90;;;3.76;80.07;100734.47;10214511;28;97640;-82
2023/10/16 21:27:31;;;;;;;3.40;1.30;;;5.40;91.70;;;3.76;80.40;100744.97;10161102;28;97621;-82
2023/10/16 21:32:36;;;;;;;3.60;1.03;;;5.40;91.90;;;3.75;79.91;100752.03;10207445;28;98620;-82
2023/10/16 21:37:39;;;;;;;3.47;1.33;;;5.40;91.60;;;3.73;79.63;100742.59;10202471;28;96624;-82
2023/10/16 21:42:46;;;;;;;8.83;2.97;;;5.40;91.80;;;3.71;79.94;100749.72;10191261;28;96618;-82
2023/10/16 21:47:50;;;;;;;15.50;6.47;;;5.40;91.80;;;3.68;79.97;100763.09;10208406;28;96753;-83
2023/10/16 21:52:54;;;;;;;8.93;4.40;;;5.30;91.60;;;3.64;80.67;100759.00;10224581;28;96767;-83
2023/10/16 21:57:57;;;;;;;6.20;3.80;;;5.30;92.00;;;3.55;80.66;100750.00;10201413;28;96745;-83
2023/10/16 22:03:03;;;;;;;10.60;4.43;;;5.20;91.90;;;3.49;80.49;100748.66;10187971;28;96555;-83
2023/10/16 22:08:07;;;;;;;10.83;4.13;;;5.10;92.00;;;3.39;80.83;100744.16;10216549;28;96580;-82
2023/10/16 22:13:11;;;;;;;6.27;2.80;;;5.00;92.10;;;3.33;81.04;100745.41;10193560;28;96745;-82
2023/10/16 22:18:15;;;;;;;5.93;2.20;;;5.00;92.20;;;3.30;80.94;100756.16;10195749;28;96815;-82
2023/10/16 22:23:18;;;;;;;4.20;1.87;;;4.90;92.70;;;3.23;81.41;100745.22;10178445;28;96768;-82
2023/10/16 22:28:22;;;;;;;6.70;2.50;;;4.90;92.90;;;3.22;81.89;100747.97;10198259;28;97143;-83
2023/10/16 22:33:26;;;;;;;6.07;2.07;;;4.90;92.80;;;3.22;82.31;100742.72;10210840;28;96494;-82
2023/10/16 22:38:31;;;;;;;5.67;2.27;;;5.00;92.70;;;3.21;81.85;100735.78;10188739;28;96645;-82